sensor_id;sensor_type;location;lat;lon;timestamp;pressure;altitude;pressure_sealevel;temperature;humidity
7940;BME280;4015;48.888;9.226;2023-08-24T00:00:39;160461.66;;;20.76;83.96
7940;BME280;4015;48.888;9.226;2023-08-24T00:03:05;160504.03;;;20.92;83.49
7940;BME280;4015;48.888;9.226;2023-08-24T00:05:35;160475.78;;;20.81;84.18
7940;BME280;4015;48.888;9.226;2023-08-24T00:08:06;160444.94;;;20.69;84.62
7940;BME280;4015;48.888;9.226;2023-08-24T00:10:33;160416.66;;;20.58;84.60
7940;BME280;4015;48.888;9.226;2023-08-24T00:12:58;160410.22;;;20.55;85.30
7940;BME280;4015;48.888;9.226;2023-08-24T00:15:24;160390.94;;;20.47;85.35
7940;BME280;4015;48.888;9.226;2023-08-24T00:17:49;160390.94;;;20.47;85.53
7940;BME280;4015;48.888;9.226;2023-08-24T00:20:15;160376.75;;;20.42;85.59
7940;BME280;4015;48.888;9.226;2023-08-24T00:22:40;160363.94;;;20.37;85.63
7940;BME280;4015;48.888;9.226;2023-08-24T00:25:07;160333.09;;;20.25;85.78
7940;BME280;4015;48.888;9.226;2023-08-24T00:27:33;160313.81;;;20.17;85.63
7940;BME280;4015;48.888;9.226;2023-08-24T00:29:59;160315.09;;;20.17;86.39
7940;BME280;4015;48.888;9.226;2023-08-24T00:32:24;160318.97;;;20.19;86.21
7940;BME280;4015;48.888;9.226;2023-08-24T00:34:49;160317.69;;;20.18;86.49
7940;BME280;4015;48.888;9.226;2023-08-24T00:37:15;160335.66;;;20.26;85.69
7940;BME280;4015;48.888;9.226;2023-08-24T00:39:40;160335.66;;;20.26;86.50
7940;BME280;4015;48.888;9.226;2023-08-24T00:42:05;160339.53;;;20.27;85.98
7940;BME280;4015;48.888;9.226;2023-08-24T00:44:31;160295.81;;;20.10;86.94
7940;BME280;4015;48.888;9.226;2023-08-24T00:46:58;160293.25;;;20.09;86.49
7940;BME280;4015;48.888;9.226;2023-08-24T00:49:24;160282.97;;;20.05;87.27
7940;BME280;4015;48.888;9.226;2023-08-24T00:51:50;160277.84;;;20.03;87.20
7940;BME280;4015;48.888;9.226;2023-08-24T00:54:16;160294.53;;;20.09;87.59
7940;BME280;4015;48.888;9.226;2023-08-24T00:56:42;160302.28;;;20.12;87.46
7940;BME280;4015;48.888;9.226;2023-08-24T00:59:08;160301.00;;;20.12;86.87
7940;BME280;4015;48.888;9.226;2023-08-24T01:01:33;160261.16;;;19.96;87.61
7940;BME280;4015;48.888;9.226;2023-08-24T01:03:58;160284.31;;;20.05;87.41
7940;BME280;4015;48.888;9.226;2023-08-24T01:06:24;160369.06;;;20.39;85.76
7940;BME280;4015;48.888;9.226;2023-08-24T01:08:50;160381.94;;;20.44;85.72
7940;BME280;4015;48.888;9.226;2023-08-24T01:11:26;160367.78;;;20.38;86.02
7940;BME280;4015;48.888;9.226;2023-08-24T01:14:25;160333.09;;;20.25;87.08
7940;BME280;4015;48.888;9.226;2023-08-24T01:16:58;160387.09;;;20.46;86.32
7940;BME280;4015;48.888;9.226;2023-08-24T01:19:44;160385.81;;;20.45;86.50
7940;BME280;4015;48.888;9.226;2023-08-24T01:25:05;160358.78;;;20.35;86.70
7940;BME280;4015;48.888;9.226;2023-08-24T01:27:33;160357.50;;;20.34;86.60
7940;BME280;4015;48.888;9.226;2023-08-24T01:30:00;160340.78;;;20.28;87.06
7940;BME280;4015;48.888;9.226;2023-08-24T01:32:26;160324.09;;;20.21;86.78
7940;BME280;4015;48.888;9.226;2023-08-24T01:34:51;160288.16;;;20.07;87.31
7940;BME280;4015;48.888;9.226;2023-08-24T01:37:17;160275.28;;;20.02;87.85
7940;BME280;4015;48.888;9.226;2023-08-24T01:39:46;160247.00;;;19.90;88.16
7940;BME280;4015;48.888;9.226;2023-08-24T01:42:19;160235.44;;;19.86;87.79
7940;BME280;4015;48.888;9.226;2023-08-24T01:44:49;160213.63;;;19.77;88.71
7940;BME280;4015;48.888;9.226;2023-08-24T01:47:17;160235.44;;;19.86;88.58
7940;BME280;4015;48.888;9.226;2023-08-24T01:49:43;160244.47;;;19.89;88.52
7940;BME280;4015;48.888;9.226;2023-08-24T01:52:09;160274.00;;;20.01;87.61
7940;BME280;4015;48.888;9.226;2023-08-24T01:54:35;160279.13;;;20.03;87.55
7940;BME280;4015;48.888;9.226;2023-08-24T01:57:01;160259.88;;;19.96;88.24
7940;BME280;4015;48.888;9.226;2023-08-24T01:59:26;160232.88;;;19.85;88.39
7940;BME280;4015;48.888;9.226;2023-08-24T02:01:52;160200.78;;;19.72;89.12
7940;BME280;4015;48.888;9.226;2023-08-24T02:04:17;160194.38;;;19.70;88.22
7940;BME280;4015;48.888;9.226;2023-08-24T02:06:42;160204.66;;;19.74;88.49
7940;BME280;4015;48.888;9.226;2023-08-24T02:09:08;160176.41;;;19.62;89.24
7940;BME280;4015;48.888;9.226;2023-08-24T02:11:33;160172.50;;;19.61;89.16
7940;BME280;4015;48.888;9.226;2023-08-24T02:13:58;160171.22;;;19.60;89.16
7940;BME280;4015;48.888;9.226;2023-08-24T02:16:24;160155.78;;;19.54;89.64
7940;BME280;4015;48.888;9.226;2023-08-24T02:18:49;160150.66;;;19.52;89.09
7940;BME280;4015;48.888;9.226;2023-08-24T02:21:14;160126.28;;;19.43;89.05
7940;BME280;4015;48.888;9.226;2023-08-24T02:23:41;160124.94;;;19.42;89.40
7940;BME280;4015;48.888;9.226;2023-08-24T02:26:07;160158.38;;;19.55;89.17
7940;BME280;4015;48.888;9.226;2023-08-24T02:28:33;160223.91;;;19.81;88.22
7940;BME280;4015;48.888;9.226;2023-08-24T02:31:02;160212.34;;;19.77;88.48
7940;BME280;4015;48.888;9.226;2023-08-24T02:33:28;160171.22;;;19.60;89.29
7940;BME280;4015;48.888;9.226;2023-08-24T02:35:53;160145.53;;;19.50;89.51
7940;BME280;4015;48.888;9.226;2023-08-24T02:38:18;160130.13;;;19.44;90.11
7940;BME280;4015;48.888;9.226;2023-08-24T02:40:44;160124.94;;;19.42;90.36
7940;BME280;4015;48.888;9.226;2023-08-24T02:43:10;160133.97;;;19.46;89.97
7940;BME280;4015;48.888;9.226;2023-08-24T02:45:35;160144.25;;;19.50;90.70
7940;BME280;4015;48.888;9.226;2023-08-24T02:48:01;160158.38;;;19.55;90.09
7940;BME280;4015;48.888;9.226;2023-08-24T02:50:26;160172.50;;;19.61;89.40
7940;BME280;4015;48.888;9.226;2023-08-24T02:52:51;160175.13;;;19.62;89.70
7940;BME280;4015;48.888;9.226;2023-08-24T02:55:17;160136.50;;;19.47;89.62
7940;BME280;4015;48.888;9.226;2023-08-24T02:57:42;160115.97;;;19.38;89.34
7940;BME280;4015;48.888;9.226;2023-08-24T03:00:08;160072.31;;;19.21;89.72
7940;BME280;4015;48.888;9.226;2023-08-24T03:02:35;160054.34;;;19.14;90.52
7940;BME280;4015;48.888;9.226;2023-08-24T03:05:01;160062.06;;;19.17;91.19
7940;BME280;4015;48.888;9.226;2023-08-24T03:07:27;160096.72;;;19.31;90.50
7940;BME280;4015;48.888;9.226;2023-08-24T03:09:52;160090.28;;;19.28;90.73
7940;BME280;4015;48.888;9.226;2023-08-24T03:12:17;160076.16;;;19.23;91.15
7940;BME280;4015;48.888;9.226;2023-08-24T03:14:43;160082.59;;;19.25;91.22
7940;BME280;4015;48.888;9.226;2023-08-24T03:17:08;160094.19;;;19.30;91.30
7940;BME280;4015;48.888;9.226;2023-08-24T03:19:33;160081.31;;;19.25;91.13
7940;BME280;4015;48.888;9.226;2023-08-24T03:21:59;160091.56;;;19.29;91.27
7940;BME280;4015;48.888;9.226;2023-08-24T03:24:24;160098.00;;;19.31;90.97
7940;BME280;4015;48.888;9.226;2023-08-24T03:26:49;160077.44;;;19.23;90.90
7940;BME280;4015;48.888;9.226;2023-08-24T03:29:14;160076.16;;;19.23;91.96
7940;BME280;4015;48.888;9.226;2023-08-24T03:31:40;160124.94;;;19.42;90.69
7940;BME280;4015;48.888;9.226;2023-08-24T03:34:05;160083.88;;;19.26;91.60
7940;BME280;4015;48.888;9.226;2023-08-24T03:36:30;160053.06;;;19.13;90.89
7940;BME280;4015;48.888;9.226;2023-08-24T03:38:56;160026.09;;;19.03;91.79
7940;BME280;4015;48.888;9.226;2023-08-24T03:41:21;160100.56;;;19.32;90.83
7940;BME280;4015;48.888;9.226;2023-08-24T03:43:46;160159.66;;;19.56;89.73
7940;BME280;4015;48.888;9.226;2023-08-24T03:46:12;160175.13;;;19.62;89.14
7940;BME280;4015;48.888;9.226;2023-08-24T03:48:37;160141.69;;;19.49;90.20
7940;BME280;4015;48.888;9.226;2023-08-24T03:51:02;160126.28;;;19.43;90.28
7940;BME280;4015;48.888;9.226;2023-08-24T03:53:28;160117.25;;;19.39;91.14
7940;BME280;4015;48.888;9.226;2023-08-24T03:55:53;160123.66;;;19.41;90.84
7940;BME280;4015;48.888;9.226;2023-08-24T03:58:19;160137.78;;;19.47;90.66
7940;BME280;4015;48.888;9.226;2023-08-24T04:00:45;160178.97;;;19.63;89.62
7940;BME280;4015;48.888;9.226;2023-08-24T04:03:11;160142.97;;;19.49;89.34
7940;BME280;4015;48.888;9.226;2023-08-24T04:05:36;160158.38;;;19.55;89.71
7940;BME280;4015;48.888;9.226;2023-08-24T04:08:02;160182.81;;;19.65;89.57
7940;BME280;4015;48.888;9.226;2023-08-24T04:10:29;160205.94;;;19.74;88.79
7940;BME280;4015;48.888;9.226;2023-08-24T04:12:54;160182.81;;;19.65;89.13
7940;BME280;4015;48.888;9.226;2023-08-24T04:15:19;160175.13;;;19.62;89.39
7940;BME280;4015;48.888;9.226;2023-08-24T04:17:45;160211.06;;;19.76;89.10
7940;BME280;4015;48.888;9.226;2023-08-24T04:20:11;160209.78;;;19.76;89.11
7940;BME280;4015;48.888;9.226;2023-08-24T04:22:36;160198.22;;;19.71;89.50
7940;BME280;4015;48.888;9.226;2023-08-24T04:25:02;160182.81;;;19.65;89.15
7940;BME280;4015;48.888;9.226;2023-08-24T04:27:27;160241.91;;;19.88;88.93
7940;BME280;4015;48.888;9.226;2023-08-24T04:29:53;160258.59;;;19.95;89.18
7940;BME280;4015;48.888;9.226;2023-08-24T04:32:18;160267.56;;;19.99;88.29
7940;BME280;4015;48.888;9.226;2023-08-24T04:34:43;160232.88;;;19.85;88.94
7940;BME280;4015;48.888;9.226;2023-08-24T04:37:09;160226.47;;;19.82;89.32
7940;BME280;4015;48.888;9.226;2023-08-24T04:39:34;160217.47;;;19.79;89.13
7940;BME280;4015;48.888;9.226;2023-08-24T04:42:00;160205.94;;;19.74;89.98
7940;BME280;4015;48.888;9.226;2023-08-24T04:44:25;160222.63;;;19.81;89.78
7940;BME280;4015;48.888;9.226;2023-08-24T04:46:50;160258.59;;;19.95;89.16
7940;BME280;4015;48.888;9.226;2023-08-24T04:49:16;160270.16;;;20.00;88.27
7940;BME280;4015;48.888;9.226;2023-08-24T04:51:41;160222.63;;;19.81;88.97
7940;BME280;4015;48.888;9.226;2023-08-24T04:54:06;160207.22;;;19.75;89.18
7940;BME280;4015;48.888;9.226;2023-08-24T04:56:32;160202.06;;;19.73;89.22
7940;BME280;4015;48.888;9.226;2023-08-24T04:58:58;160223.91;;;19.81;89.35
7940;BME280;4015;48.888;9.226;2023-08-24T05:01:25;160191.81;;;19.69;89.63
7940;BME280;4015;48.888;9.226;2023-08-24T05:03:51;160178.97;;;19.63;89.50
7940;BME280;4015;48.888;9.226;2023-08-24T05:06:17;160153.22;;;19.53;90.05
7940;BME280;4015;48.888;9.226;2023-08-24T05:08:43;160127.56;;;19.43;90.69
7940;BME280;4015;48.888;9.226;2023-08-24T05:11:18;160136.50;;;19.47;90.85
7940;BME280;4015;48.888;9.226;2023-08-24T05:13:44;160141.69;;;19.49;90.32
7940;BME280;4015;48.888;9.226;2023-08-24T05:16:10;160141.69;;;19.49;89.98
7940;BME280;4015;48.888;9.226;2023-08-24T05:18:36;160158.38;;;19.55;89.86
7940;BME280;4015;48.888;9.226;2023-08-24T05:21:02;160212.34;;;19.77;89.20
7940;BME280;4015;48.888;9.226;2023-08-24T05:23:28;160241.91;;;19.88;89.02
7940;BME280;4015;48.888;9.226;2023-08-24T05:25:54;160236.78;;;19.86;89.67
7940;BME280;4015;48.888;9.226;2023-08-24T05:28:19;160272.72;;;20.01;89.29
7940;BME280;4015;48.888;9.226;2023-08-24T05:30:44;160280.41;;;20.04;88.92
7940;BME280;4015;48.888;9.226;2023-08-24T05:33:10;160299.72;;;20.11;88.24
7940;BME280;4015;48.888;9.226;2023-08-24T05:35:35;160351.09;;;20.32;87.41
7940;BME280;4015;48.888;9.226;2023-08-24T05:38:01;160452.63;;;20.72;86.45
7940;BME280;4015;48.888;9.226;2023-08-24T05:40:26;160437.22;;;20.66;86.38
7940;BME280;4015;48.888;9.226;2023-08-24T05:42:51;160502.75;;;20.92;85.70
7940;BME280;4015;48.888;9.226;2023-08-24T06:32:47;161021.09;;;22.97;73.80
7940;BME280;4015;48.888;9.226;2023-08-24T06:35:12;161040.38;;;23.05;73.84
7940;BME280;4015;48.888;9.226;2023-08-24T06:37:40;161090.56;;;23.25;74.41
7940;BME280;4015;48.888;9.226;2023-08-24T06:42:31;161098.31;;;23.28;72.50
7940;BME280;4015;48.888;9.226;2023-08-24T06:44:56;161001.81;;;22.90;74.39
7940;BME280;4015;48.888;9.226;2023-08-24T06:47:22;160997.97;;;22.88;74.88
7940;BME280;4015;48.888;9.226;2023-08-24T06:49:47;160959.28;;;22.73;74.75
7940;BME280;4015;48.888;9.226;2023-08-24T06:52:13;160942.56;;;22.66;76.09
7940;BME280;4015;48.888;9.226;2023-08-24T06:54:38;160924.56;;;22.59;77.37
7940;BME280;4015;48.888;9.226;2023-08-24T06:57:04;160897.56;;;22.48;77.68
7940;BME280;4015;48.888;9.226;2023-08-24T06:59:29;160919.44;;;22.57;76.97
7940;BME280;4015;48.888;9.226;2023-08-24T07:01:55;160969.59;;;22.77;76.23
7940;BME280;4015;48.888;9.226;2023-08-24T07:04:20;161031.41;;;23.01;76.05
7940;BME280;4015;48.888;9.226;2023-08-24T07:06:45;161098.31;;;23.28;75.65
7940;BME280;4015;48.888;9.226;2023-08-24T07:09:11;161112.47;;;23.33;74.77
7940;BME280;4015;48.888;9.226;2023-08-24T07:11:36;161162.66;;;23.53;75.10
7940;BME280;4015;48.888;9.226;2023-08-24T07:14:02;161245.06;;;23.86;73.73
7940;BME280;4015;48.888;9.226;2023-08-24T07:16:27;161303.00;;;24.09;73.39
7940;BME280;4015;48.888;9.226;2023-08-24T07:18:52;161399.59;;;24.47;72.01
7940;BME280;4015;48.888;9.226;2023-08-24T07:21:18;161579.91;;;25.18;69.63
7940;BME280;4015;48.888;9.226;2023-08-24T07:23:43;161604.41;;;25.28;68.13
7940;BME280;4015;48.888;9.226;2023-08-24T07:26:09;161516.75;;;24.93;68.60
7940;BME280;4015;48.888;9.226;2023-08-24T07:28:34;161402.16;;;24.48;69.64
7940;BME280;4015;48.888;9.226;2023-08-24T07:31:10;161369.97;;;24.35;69.39
7940;BME280;4015;48.888;9.226;2023-08-24T07:33:38;161308.13;;;24.11;71.01
7940;BME280;4015;48.888;9.226;2023-08-24T07:36:04;161301.72;;;24.08;71.19
7940;BME280;4015;48.888;9.226;2023-08-24T07:38:30;161303.00;;;24.09;71.30
7940;BME280;4015;48.888;9.226;2023-08-24T07:40:57;161413.75;;;24.53;70.48
7940;BME280;4015;48.888;9.226;2023-08-24T07:43:22;161377.69;;;24.38;69.61
7940;BME280;4015;48.888;9.226;2023-08-24T07:45:47;161382.84;;;24.40;71.03
7940;BME280;4015;48.888;9.226;2023-08-24T07:48:13;161565.72;;;25.13;67.99
7940;BME280;4015;48.888;9.226;2023-08-24T07:50:38;161730.69;;;25.78;66.35
7940;BME280;4015;48.888;9.226;2023-08-24T07:53:03;161903.38;;;26.46;64.40
7940;BME280;4015;48.888;9.226;2023-08-24T07:55:29;162000.06;;;26.84;63.45
7940;BME280;4015;48.888;9.226;2023-08-24T07:57:55;162132.88;;;27.37;62.58
7940;BME280;4015;48.888;9.226;2023-08-24T08:00:21;162277.34;;;27.94;60.67
7940;BME280;4015;48.888;9.226;2023-08-24T08:02:52;162447.66;;;28.61;59.32
7940;BME280;4015;48.888;9.226;2023-08-24T08:05:18;162541.91;;;28.98;57.40
7940;BME280;4015;48.888;9.226;2023-08-24T08:07:43;162682.56;;;29.54;56.33
7940;BME280;4015;48.888;9.226;2023-08-24T08:10:09;162779.41;;;29.92;54.82
7940;BME280;4015;48.888;9.226;2023-08-24T08:12:34;162893.03;;;30.37;54.59
7940;BME280;4015;48.888;9.226;2023-08-24T08:15:00;162886.56;;;30.34;54.25
7940;BME280;4015;48.888;9.226;2023-08-24T08:17:26;162797.47;;;29.99;54.25
7940;BME280;4015;48.888;9.226;2023-08-24T08:19:56;162904.63;;;30.42;53.67
7940;BME280;4015;48.888;9.226;2023-08-24T08:22:22;162969.19;;;30.67;55.13
7940;BME280;4015;48.888;9.226;2023-08-24T08:24:48;162905.91;;;30.42;52.71
7940;BME280;4015;48.888;9.226;2023-08-24T08:27:13;163044.13;;;30.97;53.21
7940;BME280;4015;48.888;9.226;2023-08-24T08:29:38;163147.53;;;31.37;51.74
7940;BME280;4015;48.888;9.226;2023-08-24T08:32:04;163077.69;;;31.10;52.72
7940;BME280;4015;48.888;9.226;2023-08-24T08:34:31;163046.69;;;30.98;53.21
7940;BME280;4015;48.888;9.226;2023-08-24T08:36:56;163150.09;;;31.38;52.44
7940;BME280;4015;48.888;9.226;2023-08-24T08:39:22;163159.09;;;31.42;51.29
7940;BME280;4015;48.888;9.226;2023-08-24T08:41:48;163250.81;;;31.78;52.05
7940;BME280;4015;48.888;9.226;2023-08-24T08:44:14;163146.22;;;31.37;51.06
7940;BME280;4015;48.888;9.226;2023-08-24T08:46:41;163060.91;;;31.03;52.56
7940;BME280;4015;48.888;9.226;2023-08-24T08:49:07;163028.63;;;30.91;53.77
7940;BME280;4015;48.888;9.226;2023-08-24T08:51:36;163024.78;;;30.89;53.39
7940;BME280;4015;48.888;9.226;2023-08-24T08:54:02;163115.22;;;31.25;54.23
7940;BME280;4015;48.888;9.226;2023-08-24T08:56:29;163175.91;;;31.49;53.46
7940;BME280;4015;48.888;9.226;2023-08-24T08:58:56;163253.44;;;31.79;51.32
7940;BME280;4015;48.888;9.226;2023-08-24T09:01:23;163371.03;;;32.26;51.30
7940;BME280;4015;48.888;9.226;2023-08-24T09:03:50;163443.44;;;32.54;50.23
7940;BME280;4015;48.888;9.226;2023-08-24T09:06:16;163469.28;;;32.64;50.32
7940;BME280;4015;48.888;9.226;2023-08-24T09:08:41;163436.97;;;32.52;49.28
7940;BME280;4015;48.888;9.226;2023-08-24T09:11:08;163602.44;;;33.17;47.74
7940;BME280;4015;48.888;9.226;2023-08-24T09:13:34;163355.53;;;32.19;49.33
7940;BME280;4015;48.888;9.226;2023-08-24T09:16:06;163407.25;;;32.40;51.67
7940;BME280;4015;48.888;9.226;2023-08-24T09:18:39;163495.09;;;32.74;49.51
7940;BME280;4015;48.888;9.226;2023-08-24T09:21:11;163425.34;;;32.47;51.35
7940;BME280;4015;48.888;9.226;2023-08-24T09:23:38;163298.66;;;31.97;50.74
7940;BME280;4015;48.888;9.226;2023-08-24T09:26:04;163371.03;;;32.26;53.98
7940;BME280;4015;48.888;9.226;2023-08-24T09:28:30;163435.69;;;32.51;52.30
7940;BME280;4015;48.888;9.226;2023-08-24T09:30:55;163577.91;;;33.07;51.79
7940;BME280;4015;48.888;9.226;2023-08-24T09:33:21;163483.50;;;32.70;50.91
7940;BME280;4015;48.888;9.226;2023-08-24T09:35:54;163610.22;;;33.20;51.67
7940;BME280;4015;48.888;9.226;2023-08-24T09:38:23;163726.56;;;33.66;50.35
7940;BME280;4015;48.888;9.226;2023-08-24T09:40:53;163885.66;;;34.28;50.03
7940;BME280;4015;48.888;9.226;2023-08-24T09:43:19;163937.41;;;34.49;49.82
7940;BME280;4015;48.888;9.226;2023-08-24T09:45:55;163770.53;;;33.83;49.03
7940;BME280;4015;48.888;9.226;2023-08-24T09:48:22;164015.00;;;34.79;47.57
7940;BME280;4015;48.888;9.226;2023-08-24T09:50:50;164096.53;;;35.11;44.98
7940;BME280;4015;48.888;9.226;2023-08-24T09:53:20;164232.44;;;35.65;45.23
7940;BME280;4015;48.888;9.226;2023-08-24T09:56:02;164227.22;;;35.63;44.54
7940;BME280;4015;48.888;9.226;2023-08-24T09:58:28;164484.81;;;36.64;43.97
7940;BME280;4015;48.888;9.226;2023-08-24T10:00:55;164391.63;;;36.28;42.41
7940;BME280;4015;48.888;9.226;2023-08-24T10:03:24;164379.97;;;36.23;43.21
7940;BME280;4015;48.888;9.226;2023-08-24T10:05:52;164328.22;;;36.03;44.00
7940;BME280;4015;48.888;9.226;2023-08-24T10:08:51;164567.72;;;36.97;43.20
7940;BME280;4015;48.888;9.226;2023-08-24T10:11:22;164714.03;;;37.55;41.34
7940;BME280;4015;48.888;9.226;2023-08-24T10:14:03;164688.13;;;37.44;44.31
7940;BME280;4015;48.888;9.226;2023-08-24T10:16:33;164844.81;;;38.06;43.85
7940;BME280;4015;48.888;9.226;2023-08-24T10:19:01;165070.25;;;38.95;42.45
7940;BME280;4015;48.888;9.226;2023-08-24T10:21:28;165221.84;;;39.54;39.51
7940;BME280;4015;48.888;9.226;2023-08-24T10:23:55;165062.50;;;38.92;40.08
7940;BME280;4015;48.888;9.226;2023-08-24T10:26:22;164907.03;;;38.30;40.92
7940;BME280;4015;48.888;9.226;2023-08-24T10:28:49;165224.44;;;39.55;40.45
7940;BME280;4015;48.888;9.226;2023-08-24T10:31:15;165190.75;;;39.42;39.97
7940;BME280;4015;48.888;9.226;2023-08-24T10:33:41;164995.06;;;38.65;40.84
7940;BME280;4015;48.888;9.226;2023-08-24T10:36:09;165050.81;;;38.87;40.75
7940;BME280;4015;48.888;9.226;2023-08-24T10:38:40;165180.38;;;39.38;41.59
7940;BME280;4015;48.888;9.226;2023-08-24T10:41:07;165275.00;;;39.75;39.68
7940;BME280;4015;48.888;9.226;2023-08-24T10:43:48;165287.97;;;39.80;39.13
7940;BME280;4015;48.888;9.226;2023-08-24T10:46:14;165337.19;;;40.00;39.26
7940;BME280;4015;48.888;9.226;2023-08-24T10:53:39;165477.22;;;40.55;40.57
7940;BME280;4015;48.888;9.226;2023-08-24T10:56:11;165280.16;;;39.77;39.26
7940;BME280;4015;48.888;9.226;2023-08-24T10:58:37;165389.06;;;40.20;39.79
7940;BME280;4015;48.888;9.226;2023-08-24T11:01:03;165241.31;;;39.62;40.84
7940;BME280;4015;48.888;9.226;2023-08-24T11:03:33;165280.16;;;39.77;40.29
7940;BME280;4015;48.888;9.226;2023-08-24T11:05:58;165089.66;;;39.02;41.48
7940;BME280;4015;48.888;9.226;2023-08-24T11:08:46;164973.06;;;38.56;41.33
7940;BME280;4015;48.888;9.226;2023-08-24T11:11:22;165105.19;;;39.08;42.01
7940;BME280;4015;48.888;9.226;2023-08-24T11:14:13;165177.81;;;39.37;42.57
7940;BME280;4015;48.888;9.226;2023-08-24T11:16:44;165061.19;;;38.91;42.33
7940;BME280;4015;48.888;9.226;2023-08-24T11:19:14;164865.53;;;38.14;42.78
7940;BME280;4015;48.888;9.226;2023-08-24T11:21:40;165312.56;;;39.90;41.91
7940;BME280;4015;48.888;9.226;2023-08-24T11:24:06;165440.88;;;40.40;40.92
7940;BME280;4015;48.888;9.226;2023-08-24T11:26:33;165221.84;;;39.54;41.27
7940;BME280;4015;48.888;9.226;2023-08-24T11:28:59;165584.81;;;40.97;40.49
7940;BME280;4015;48.888;9.226;2023-08-24T11:31:24;165536.81;;;40.78;39.34
7940;BME280;4015;48.888;9.226;2023-08-24T11:33:54;165381.31;;;40.17;40.09
7940;BME280;4015;48.888;9.226;2023-08-24T11:36:23;165494.06;;;40.61;39.72
7940;BME280;4015;48.888;9.226;2023-08-24T11:38:52;165958.28;;;42.44;39.31
7940;BME280;4015;48.888;9.226;2023-08-24T11:41:18;166086.72;;;42.94;37.10
7940;BME280;4015;48.888;9.226;2023-08-24T11:43:46;166103.59;;;43.01;38.01
7940;BME280;4015;48.888;9.226;2023-08-24T11:46:13;166024.47;;;42.70;37.48
7940;BME280;4015;48.888;9.226;2023-08-24T11:48:40;166204.78;;;43.41;36.60
7940;BME280;4015;48.888;9.226;2023-08-24T11:51:09;166304.69;;;43.80;37.87
7940;BME280;4015;48.888;9.226;2023-08-24T11:53:41;166383.81;;;44.11;36.83
7940;BME280;4015;48.888;9.226;2023-08-24T11:56:13;166246.31;;;43.57;36.69
7940;BME280;4015;48.888;9.226;2023-08-24T11:58:42;166274.81;;;43.68;36.55
7940;BME280;4015;48.888;9.226;2023-08-24T12:01:09;166095.81;;;42.98;35.98
7940;BME280;4015;48.888;9.226;2023-08-24T12:03:36;166347.50;;;43.97;36.92
7940;BME280;4015;48.888;9.226;2023-08-24T12:06:02;166543.47;;;44.74;35.81
7940;BME280;4015;48.888;9.226;2023-08-24T12:08:37;166853.72;;;45.95;34.48
7940;BME280;4015;48.888;9.226;2023-08-24T12:11:03;166761.53;;;45.59;34.08
7940;BME280;4015;48.888;9.226;2023-08-24T12:13:34;166570.72;;;44.84;36.22
7940;BME280;4015;48.888;9.226;2023-08-24T12:16:00;166451.31;;;44.37;37.09
7940;BME280;4015;48.888;9.226;2023-08-24T12:18:26;165833.78;;;41.95;37.84
7940;BME280;4015;48.888;9.226;2023-08-24T12:20:52;166459.09;;;44.40;36.37
7940;BME280;4015;48.888;9.226;2023-08-24T12:23:17;166836.81;;;45.89;34.63
7940;BME280;4015;48.888;9.226;2023-08-24T12:25:43;167021.22;;;46.61;34.93
7940;BME280;4015;48.888;9.226;2023-08-24T12:30:52;166638.22;;;45.11;35.40
7940;BME280;4015;48.888;9.226;2023-08-24T12:33:36;166377.34;;;44.08;36.72
7940;BME280;4015;48.888;9.226;2023-08-24T12:36:02;166220.34;;;43.47;36.24
7940;BME280;4015;48.888;9.226;2023-08-24T12:38:27;166261.88;;;43.63;36.39
7940;BME280;4015;48.888;9.226;2023-08-24T12:40:53;166660.25;;;45.19;35.06
7940;BME280;4015;48.888;9.226;2023-08-24T12:43:18;166665.47;;;45.22;35.14
7940;BME280;4015;48.888;9.226;2023-08-24T12:45:44;166877.06;;;46.05;34.88
7940;BME280;4015;48.888;9.226;2023-08-24T12:48:10;166914.75;;;46.19;34.23
7940;BME280;4015;48.888;9.226;2023-08-24T12:50:36;166929.03;;;46.25;34.70
7940;BME280;4015;48.888;9.226;2023-08-24T12:53:02;167054.97;;;46.74;33.32
7940;BME280;4015;48.888;9.226;2023-08-24T12:55:28;167326.41;;;47.81;33.53
7940;BME280;4015;48.888;9.226;2023-08-24T12:57:54;167422.53;;;48.19;32.37
7940;BME280;4015;48.888;9.226;2023-08-24T13:00:19;167504.34;;;48.51;31.59
7940;BME280;4015;48.888;9.226;2023-08-24T13:02:45;166822.59;;;45.83;33.71
7940;BME280;4015;48.888;9.226;2023-08-24T13:05:11;166254.06;;;43.60;36.49
7940;BME280;4015;48.888;9.226;2023-08-24T13:07:36;166120.47;;;43.07;37.88
7940;BME280;4015;48.888;9.226;2023-08-24T13:10:02;166033.50;;;42.73;37.07
7940;BME280;4015;48.888;9.226;2023-08-24T13:12:28;165918.09;;;42.28;37.87
7940;BME280;4015;48.888;9.226;2023-08-24T13:14:54;165831.19;;;41.94;40.13
7940;BME280;4015;48.888;9.226;2023-08-24T13:17:19;165931.06;;;42.33;38.35
7940;BME280;4015;48.888;9.226;2023-08-24T13:19:44;166115.25;;;43.05;37.55
7940;BME280;4015;48.888;9.226;2023-08-24T13:22:10;166254.06;;;43.60;36.97
7940;BME280;4015;48.888;9.226;2023-08-24T13:24:35;166328.06;;;43.89;36.06
7940;BME280;4015;48.888;9.226;2023-08-24T13:27:02;166664.19;;;45.21;35.18
7940;BME280;4015;48.888;9.226;2023-08-24T13:29:28;166639.50;;;45.11;35.90
7940;BME280;4015;48.888;9.226;2023-08-24T13:31:53;166690.09;;;45.31;34.71
7940;BME280;4015;48.888;9.226;2023-08-24T13:34:19;166970.56;;;46.41;34.42
7940;BME280;4015;48.888;9.226;2023-08-24T13:36:44;167010.81;;;46.57;32.41
7940;BME280;4015;48.888;9.226;2023-08-24T13:39:10;167192.66;;;47.28;32.93
7940;BME280;4015;48.888;9.226;2023-08-24T13:41:36;167457.63;;;48.32;31.80
7940;BME280;4015;48.888;9.226;2023-08-24T13:44:01;167640.81;;;49.04;30.89
7940;BME280;4015;48.888;9.226;2023-08-24T13:46:27;167664.16;;;49.13;32.06
7940;BME280;4015;48.888;9.226;2023-08-24T13:48:52;167700.53;;;49.28;31.36
7940;BME280;4015;48.888;9.226;2023-08-24T13:51:17;167390.06;;;48.06;31.23
7940;BME280;4015;48.888;9.226;2023-08-24T13:53:43;167506.94;;;48.52;30.91
7940;BME280;4015;48.888;9.226;2023-08-24T13:56:08;167378.38;;;48.01;31.61
7940;BME280;4015;48.888;9.226;2023-08-24T13:58:34;167216.00;;;47.38;31.43
7940;BME280;4015;48.888;9.226;2023-08-24T14:00:59;167630.38;;;49.00;30.16
7940;BME280;4015;48.888;9.226;2023-08-24T14:03:25;167460.22;;;48.33;31.63
7940;BME280;4015;48.888;9.226;2023-08-24T14:05:58;167410.81;;;48.14;31.49
7940;BME280;4015;48.888;9.226;2023-08-24T14:08:23;167577.16;;;48.79;31.27